createdAt,value
2023-04-24T00:05:21.003Z,56.72
2023-04-24T00:10:26.537Z,55.30
2023-04-24T00:15:31.924Z,57.17
2023-04-24T00:20:42.134Z,69.40
2023-04-24T00:25:47.961Z,58.40
2023-04-24T00:35:59.237Z,69.13
2023-04-24T00:41:05.064Z,60.00
2023-04-24T00:51:18.246Z,56.60
2023-04-24T00:56:23.929Z,53.38
2023-04-24T01:06:36.104Z,58.07
2023-04-24T01:11:43.497Z,60.50
2023-04-24T01:16:50.373Z,55.28
2023-04-24T01:22:01.134Z,63.50
2023-04-24T01:27:08.141Z,61.83
2023-04-24T01:32:13.958Z,61.35
2023-04-24T01:37:19.927Z,72.40
2023-04-24T01:42:27.765Z,58.95
2023-04-24T01:47:36.050Z,56.88
2023-04-24T01:52:41.584Z,56.83
2023-04-24T01:57:48.508Z,52.22
2023-04-24T02:08:00.069Z,53.20
2023-04-24T02:13:07.258Z,48.45
2023-04-24T02:18:13.968Z,50.83
2023-04-24T02:23:19.740Z,49.22
2023-04-24T02:28:25.843Z,51.92
2023-04-24T02:33:32.098Z,56.10
2023-04-24T02:38:44.729Z,52.33
2023-04-24T02:43:52.090Z,50.97
2023-04-24T02:48:57.757Z,63.67
2023-04-24T02:59:08.883Z,67.07
2023-04-24T03:04:15.459Z,54.55
2023-04-24T03:09:21.128Z,57.38
2023-04-24T03:19:32.307Z,60.27
2023-04-24T03:24:43.737Z,55.92
2023-04-24T03:29:54.065Z,62.22
2023-04-24T03:35:00.150Z,56.60
2023-04-24T03:45:19.465Z,41.38
2023-04-24T03:50:29.270Z,40.65
2023-04-24T03:55:38.042Z,51.42
2023-04-24T04:00:44.112Z,45.92
2023-04-24T04:06:21.999Z,51.50
2023-04-24T04:11:29.795Z,50.70
2023-04-24T04:16:35.735Z,41.63
2023-04-24T04:21:42.703Z,44.90
2023-04-24T04:27:13.175Z,44.50
2023-04-24T04:32:29.551Z,46.60
2023-04-24T04:37:36.783Z,44.42
2023-04-24T04:43:08.734Z,54.38
2023-04-24T04:48:21.724Z,51.38
2023-04-24T04:53:28.776Z,51.67
2023-04-24T04:58:35.544Z,50.70
2023-04-24T05:03:43.269Z,52.03
2023-04-24T05:08:52.462Z,53.05
2023-04-24T05:14:21.728Z,52.30
2023-04-24T05:19:31.030Z,52.03
2023-04-24T05:24:37.943Z,52.42
2023-04-24T05:29:52.623Z,52.50
2023-04-24T05:34:58.432Z,56.03
2023-04-24T05:40:04.497Z,46.72
2023-04-24T05:50:15.787Z,44.30
2023-04-24T05:55:21.816Z,52.90
2023-04-24T06:00:28.618Z,48.03
2023-04-24T06:05:42.294Z,48.47
2023-04-24T06:10:48.536Z,45.42
2023-04-24T06:15:57.296Z,41.60
2023-04-24T06:21:16.486Z,45.35
2023-04-24T06:26:26.198Z,47.97
2023-04-24T06:31:53.512Z,43.92
2023-04-24T06:37:00.124Z,45.85
2023-04-24T06:42:05.629Z,49.17
2023-04-24T06:47:16.114Z,47.60
2023-04-24T06:52:22.501Z,43.13
2023-04-24T06:57:28.176Z,39.72
2023-04-24T07:02:37.323Z,40.58
2023-04-24T07:07:44.289Z,40.97
2023-04-24T07:12:50.098Z,44.28
2023-04-24T07:17:55.854Z,38.47
2023-04-24T07:28:38.020Z,38.28
2023-04-24T07:33:43.951Z,34.25
2023-04-24T07:38:49.781Z,46.20
2023-04-24T07:43:56.346Z,35.50
2023-04-24T07:49:13.052Z,39.78
2023-04-24T07:54:19.576Z,37.90
2023-04-24T07:59:25.032Z,35.85
2023-04-24T08:04:35.197Z,36.58
2023-04-24T08:09:40.627Z,36.70
2023-04-24T08:14:46.200Z,41.97
2023-04-24T08:19:53.536Z,37.85
2023-04-24T08:24:59.673Z,36.65
2023-04-24T08:30:09.535Z,34.33
2023-04-24T08:35:20.387Z,44.30
2023-04-24T08:40:32.644Z,40.28
2023-04-24T08:45:39.096Z,39.88
2023-04-24T08:50:45.443Z,39.08
2023-04-24T08:55:52.471Z,41.15
2023-04-24T09:01:04.974Z,35.35
2023-04-24T09:06:12.924Z,39.65
2023-04-24T09:11:20.058Z,36.28
2023-04-24T09:22:07.440Z,33.97
2023-04-24T09:27:15.853Z,36.03
2023-04-24T09:32:27.703Z,36.67
2023-04-24T09:37:37.657Z,36.38
2023-04-24T09:43:11.473Z,37.00
2023-04-24T09:48:16.785Z,37.72
2023-04-24T09:53:28.480Z,36.42
2023-04-24T09:58:34.661Z,34.50
2023-04-24T10:03:40.926Z,36.08
2023-04-24T10:08:48.797Z,36.25
2023-04-24T10:13:55.282Z,34.10
2023-04-24T10:19:03.515Z,33.75
2023-04-24T10:24:10.223Z,34.10
2023-04-24T10:29:20.544Z,36.65
2023-04-24T10:34:27.240Z,41.53
2023-04-24T10:39:35.962Z,34.13
2023-04-24T10:44:43.635Z,36.25
2023-04-24T10:49:49.183Z,37.83
2023-04-24T10:54:55.227Z,37.13
2023-04-24T11:00:18.338Z,35.13
2023-04-24T11:05:25.936Z,40.30
2023-04-24T11:10:31.530Z,39.83
2023-04-24T11:15:37.022Z,41.45
2023-04-24T11:20:47.297Z,46.33
2023-04-24T11:26:15.116Z,37.30
2023-04-24T11:43:12.370Z,38.92
2023-04-24T11:48:23.987Z,41.78
2023-04-24T11:53:30.431Z,42.70
2023-04-24T11:58:43.882Z,48.72
2023-04-24T12:04:03.971Z,38.28
2023-04-24T12:09:20.176Z,37.97
2023-04-24T12:14:26.411Z,40.70
2023-04-24T12:19:36.210Z,45.60
2023-04-24T12:25:03.425Z,44.35
2023-04-24T12:30:15.935Z,44.80
2023-04-24T12:35:28.084Z,48.58
2023-04-24T12:40:34.352Z,38.08
2023-04-24T12:45:40.078Z,43.75
2023-04-24T12:50:47.222Z,39.80
2023-04-24T12:55:56.567Z,41.40
2023-04-24T13:01:11.756Z,38.45
2023-04-24T13:07:17.508Z,39.13
2023-04-24T13:13:49.358Z,40.28
2023-04-24T13:18:55.588Z,35.28
2023-04-24T13:24:01.459Z,37.92
2023-04-24T13:29:08.612Z,27.52
2023-04-24T13:34:14.299Z,36.63
2023-04-24T13:39:21.793Z,33.47
2023-04-24T13:44:32.153Z,36.30
2023-04-24T13:49:37.992Z,37.78
2023-04-24T13:54:43.777Z,38.80
2023-04-24T13:59:53.317Z,36.75
2023-04-24T14:04:59.700Z,39.92
2023-04-24T14:10:06.440Z,42.58
2023-04-24T14:15:14.562Z,38.00
2023-04-24T14:20:29.927Z,41.70
2023-04-24T14:25:35.590Z,40.43
2023-04-24T14:30:43.152Z,25.73
2023-04-24T14:35:50.180Z,43.03
2023-04-24T14:41:06.137Z,40.33
2023-04-24T14:46:16.610Z,36.92
2023-04-24T14:51:25.807Z,38.13
2023-04-24T14:56:32.403Z,33.67
2023-04-24T15:01:39.144Z,38.95
2023-04-24T15:06:44.843Z,33.17
2023-04-24T15:16:56.864Z,32.23
2023-04-24T15:22:05.426Z,35.47
2023-04-24T15:27:16.527Z,37.30
2023-04-24T15:32:24.682Z,42.22
2023-04-24T15:37:30.441Z,37.70
2023-04-24T15:42:36.464Z,40.65
2023-04-24T15:47:42.438Z,37.08
2023-04-24T15:52:49.541Z,36.03
2023-04-24T15:57:54.936Z,36.10
2023-04-24T16:03:00.701Z,35.03
2023-04-24T16:08:06.585Z,35.08
2023-04-24T16:13:13.513Z,40.00
2023-04-24T16:18:19.445Z,38.85
2023-04-24T16:28:31.487Z,35.38
2023-04-24T16:33:37.245Z,37.78
2023-04-24T16:38:46.313Z,35.50
2023-04-24T16:43:52.336Z,36.45
2023-04-24T16:49:05.523Z,34.00
2023-04-24T16:54:14.799Z,28.73
2023-04-24T17:06:04.749Z,35.08
2023-04-24T17:12:26.407Z,34.13
2023-04-24T17:17:36.532Z,27.80
2023-04-24T17:22:42.036Z,30.13
2023-04-24T17:27:48.100Z,36.60
2023-04-24T17:33:28.124Z,34.10
2023-04-24T17:38:33.867Z,35.22
2023-04-24T17:43:39.694Z,37.47
2023-04-24T17:48:46.585Z,35.72
2023-04-24T17:53:53.688Z,43.33
2023-04-24T17:58:59.821Z,34.22
2023-04-24T18:04:05.825Z,31.88
2023-04-24T18:09:12.178Z,33.20
2023-04-24T18:14:17.886Z,27.88
2023-04-24T18:24:29.106Z,29.77
2023-04-24T18:34:40.230Z,29.55
2023-04-24T18:39:45.965Z,32.80
2023-04-24T18:44:51.900Z,28.70
2023-04-24T18:49:57.162Z,27.25
2023-04-24T18:55:03.588Z,27.70
2023-04-24T19:00:10.063Z,28.92
2023-04-24T19:05:15.746Z,28.63
2023-04-24T19:10:21.577Z,32.40
2023-04-24T19:15:28.149Z,31.83
2023-04-24T19:20:34.484Z,29.23
2023-04-24T19:25:40.494Z,31.83
2023-04-24T19:30:46.955Z,26.05
2023-04-24T19:35:52.731Z,28.60
2023-04-24T19:40:58.222Z,27.20
2023-04-24T19:46:03.694Z,33.78
2023-04-24T19:51:09.445Z,28.48
2023-04-24T19:56:14.841Z,26.52
2023-04-24T20:06:26.490Z,29.08
2023-04-24T20:11:32.403Z,30.33
2023-04-24T20:16:38.882Z,26.80
2023-04-24T20:21:44.620Z,27.05
2023-04-24T20:31:55.490Z,29.65
2023-04-24T20:37:01.519Z,27.67
2023-04-24T20:42:07.844Z,27.48
2023-04-24T20:47:13.562Z,32.00
2023-04-24T20:57:24.889Z,37.60
2023-04-24T21:02:30.602Z,33.65
2023-04-24T21:07:36.642Z,35.83
2023-04-24T21:12:42.511Z,37.00
2023-04-24T21:17:48.858Z,33.63
2023-04-24T21:22:54.568Z,40.70
2023-04-24T21:28:02.198Z,40.30
2023-04-24T21:33:08.162Z,29.05
2023-04-24T21:43:20.596Z,41.55
2023-04-24T21:48:29.099Z,51.20
2023-04-24T21:53:35.079Z,40.42
2023-04-24T22:03:46.534Z,37.83
2023-04-24T22:08:52.136Z,51.45
2023-04-24T22:13:58.169Z,43.28
2023-04-24T22:19:04.106Z,42.33
2023-04-24T22:24:11.054Z,40.30
2023-04-24T22:29:17.043Z,47.58
2023-04-24T22:34:22.939Z,43.17
2023-04-24T22:39:29.224Z,54.80
2023-04-24T22:44:35.244Z,51.85
2023-04-24T22:49:41.420Z,41.88
2023-04-24T22:54:47.178Z,42.65
2023-04-24T23:05:10.330Z,48.50
2023-04-24T23:10:15.849Z,47.72
2023-04-24T23:15:21.567Z,45.28
2023-04-24T23:20:28.201Z,42.63
2023-04-24T23:25:34.827Z,38.05
2023-04-24T23:30:41.635Z,43.33
2023-04-24T23:35:47.219Z,42.50
2023-04-24T23:40:53.570Z,43.72
2023-04-24T23:45:58.964Z,39.30
2023-04-24T23:51:04.851Z,46.35
2023-04-24T23:56:10.423Z,40.53
